Time,TemperatureF,DewpointF,PressureIn,WindDirection,WindDirectionDegrees,WindSpeedMPH,WindSpeedGustMPH,Humidity,HourlyPrecipIn,Conditions,Clouds,dailyrainin,SolarRadiationWatts/m^2,SoftwareType,DateUTC
2013-12-15 00:00:00,31.5,30.0,29.74,NNE,13,1.0,1.0,94,0.00,,,0.00,0,Wunderground v.1.15,2013-12-15 05:00:00,
2013-12-15 00:10:00,31.3,29.8,29.74,North,360,1.0,2.0,94,0.00,,,0.00,0,Wunderground v.1.15,2013-12-15 05:10:00,
2013-12-15 00:20:00,31.2,29.7,29.73,NNE,25,1.0,2.0,94,0.00,,,0.00,0,Wunderground v.1.15,2013-12-15 05:20:00,
2013-12-15 00:30:00,31.1,29.8,29.73,North,5,1.0,1.0,95,0.00,,,0.00,0,Wunderground v.1.15,2013-12-15 05:30:00,
2013-12-15 00:40:00,31.1,29.8,29.73,North,5,0.0,0.0,95,0.00,,,0.00,0,Wunderground v.1.15,2013-12-15 05:40:00,
2013-12-15 00:50:00,31.0,29.7,29.71,North,9,1.0,1.0,95,0.00,,,0.00,0,Wunderground v.1.15,2013-12-15 05:50:00,
2013-12-15 01:00:00,31.0,29.7,29.69,NE,45,0.0,0.0,95,0.00,,,0.00,0,Wunderground v.1.15,2013-12-15 06:00:00,
2013-12-15 01:10:00,30.9,29.6,29.69,NE,52,0.0,0.0,95,0.00,,,0.00,0,Wunderground v.1.15,2013-12-15 06:10:00,
2013-12-15 01:20:00,30.8,29.5,29.69,NNE,22,0.0,0.0,95,0.00,,,0.00,0,Wunderground v.1.15,2013-12-15 06:20:00,
2013-12-15 01:30:00,30.6,29.3,29.70,North,5,0.0,0.0,95,0.00,,,0.00,0,Wunderground v.1.15,2013-12-15 06:30:00,
2013-12-15 01:40:00,30.4,29.1,29.70,North,5,1.0,1.0,95,0.00,,,0.00,0,Wunderground v.1.15,2013-12-15 06:40:00,
2013-12-15 01:50:00,30.3,29.0,29.68,NE,42,1.0,1.0,95,0.00,,,0.00,0,Wunderground v.1.15,2013-12-15 06:50:00,
2013-12-15 02:00:00,30.2,28.9,29.67,NE,50,0.0,0.0,95,0.00,,,0.00,0,Wunderground v.1.15,2013-12-15 07:00:00,
2013-12-15 02:10:00,30.2,28.9,29.66,North,5,0.0,0.0,95,0.00,,,0.00,0,Wunderground v.1.15,2013-12-15 07:10:00,
2013-12-15 02:20:00,30.1,28.8,29.69,North,355,1.0,2.0,95,0.00,,,0.00,0,Wunderground v.1.15,2013-12-15 07:20:00,
2013-12-15 02:30:00,30.1,28.8,29.67,NE,42,0.0,0.0,95,0.00,,,0.00,0,Wunderground v.1.15,2013-12-15 07:30:00,
2013-12-15 02:40:00,30.0,28.7,29.67,NNE,13,0.0,0.0,95,0.00,,,0.00,0,Wunderground v.1.15,2013-12-15 07:40:00,
2013-12-15 02:50:00,30.0,28.7,29.67,NNE,13,0.0,0.0,95,0.00,,,0.00,0,Wunderground v.1.15,2013-12-15 07:50:00,
2013-12-15 03:00:00,30.0,28.7,29.68,NNE,13,0.0,0.0,95,0.00,,,0.00,0,Wunderground v.1.15,2013-12-15 08:00:00,
2013-12-15 03:10:00,30.0,28.7,29.67,NNE,13,0.0,0.0,95,0.00,,,0.00,0,Wunderground v.1.15,2013-12-15 08:10:00,
2013-12-15 03:20:00,30.0,28.7,29.67,NNE,13,0.0,0.0,95,0.00,,,0.00,0,Wunderground v.1.15,2013-12-15 08:20:00,
2013-12-15 03:30:00,30.0,28.7,29.66,NNE,13,0.0,0.0,95,0.00,,,0.00,0,Wunderground v.1.15,2013-12-15 08:30:00,
2013-12-15 03:40:00,30.0,28.7,29.67,NNE,13,0.0,0.0,95,0.00,,,0.00,0,Wunderground v.1.15,2013-12-15 08:40:00,
2013-12-15 03:50:00,30.0,28.7,29.67,NNE,13,0.0,0.0,95,0.00,,,0.00,0,Wunderground v.1.15,2013-12-15 08:50:00,
2013-12-15 04:00:00,30.1,28.8,29.67,NNE,13,0.0,0.0,95,0.00,,,0.00,0,Wunderground v.1.15,2013-12-15 09:00:00,
2013-12-15 04:10:00,30.1,28.8,29.66,NNE,13,0.0,0.0,95,0.00,,,0.00,0,Wunderground v.1.15,2013-12-15 09:10:00,
2013-12-15 04:20:00,30.1,28.8,29.65,NNE,13,0.0,0.0,95,0.00,,,0.00,0,Wunderground v.1.15,2013-12-15 09:20:00,
2013-12-15 04:30:00,30.1,28.8,29.66,NNE,13,0.0,0.0,95,0.00,,,0.00,0,Wunderground v.1.15,2013-12-15 09:30:00,
2013-12-15 04:40:00,30.2,28.9,29.65,NNE,13,0.0,0.0,95,0.00,,,0.00,0,Wunderground v.1.15,2013-12-15 09:40:00,
2013-12-15 04:50:00,30.2,28.9,29.65,NNE,13,0.0,0.0,95,0.00,,,0.00,0,Wunderground v.1.15,2013-12-15 09:50:00,
2013-12-15 05:00:00,30.3,29.0,29.65,NNE,13,0.0,0.0,95,0.00,,,0.00,0,Wunderground v.1.15,2013-12-15 10:00:00,
2013-12-15 05:10:00,30.4,29.1,29.65,NNE,13,0.0,0.0,95,0.00,,,0.00,0,Wunderground v.1.15,2013-12-15 10:10:00,
2013-12-15 05:20:00,30.5,29.2,29.66,NNE,13,0.0,0.0,95,0.00,,,0.00,0,Wunderground v.1.15,2013-12-15 10:20:00,
2013-12-15 05:30:00,30.6,29.3,29.67,NNE,13,0.0,0.0,95,0.00,,,0.00,0,Wunderground v.1.15,2013-12-15 10:30:00,
2013-12-15 05:40:00,30.6,29.3,29.67,NNE,13,0.0,0.0,95,0.00,,,0.00,0,Wunderground v.1.15,2013-12-15 10:40:00,
2013-12-15 05:50:00,30.7,29.4,29.67,NNE,13,0.0,0.0,95,0.00,,,0.00,0,Wunderground v.1.15,2013-12-15 10:50:00,
2013-12-15 06:00:00,30.7,29.4,29.67,NNE,13,0.0,0.0,95,0.00,,,0.00,0,Wunderground v.1.15,2013-12-15 11:00:00,
2013-12-15 06:10:00,30.8,29.5,29.68,NNE,13,0.0,0.0,95,0.00,,,0.00,0,Wunderground v.1.15,2013-12-15 11:10:00,
2013-12-15 06:20:00,30.9,29.6,29.68,NNE,13,0.0,0.0,95,0.00,,,0.00,0,Wunderground v.1.15,2013-12-15 11:20:00,
2013-12-15 06:30:00,31.0,29.7,29.68,NNE,13,0.0,0.0,95,0.00,,,0.00,0,Wunderground v.1.15,2013-12-15 11:30:00,
2013-12-15 06:40:00,31.1,29.8,29.68,NNE,13,0.0,0.0,95,0.00,,,0.00,0,Wunderground v.1.15,2013-12-15 11:40:00,
2013-12-15 06:50:00,31.3,30.0,29.68,NNE,13,0.0,0.0,95,0.00,,,0.00,0,Wunderground v.1.15,2013-12-15 11:50:00,
2013-12-15 07:00:00,31.5,30.2,29.69,NNE,13,0.0,0.0,95,0.00,,,0.00,0,Wunderground v.1.15,2013-12-15 12:00:00,
2013-12-15 07:10:00,31.7,30.4,29.68,NNE,13,0.0,0.0,95,0.00,,,0.00,0,Wunderground v.1.15,2013-12-15 12:10:00,
2013-12-15 07:20:00,31.9,30.6,29.68,NNE,13,0.0,0.0,95,0.00,,,0.00,0,Wunderground v.1.15,2013-12-15 12:20:00,
2013-12-15 07:30:00,32.0,30.7,29.69,East,85,0.0,0.0,95,0.00,,,0.00,0,Wunderground v.1.15,2013-12-15 12:30:00,
2013-12-15 07:40:00,32.0,30.7,29.69,ENE,74,0.0,0.0,95,0.00,,,0.00,9,Wunderground v.1.15,2013-12-15 12:40:00,
2013-12-15 07:50:00,32.0,30.7,29.68,ENE,74,0.0,0.0,95,0.00,,,0.00,19,Wunderground v.1.15,2013-12-15 12:50:00,
2013-12-15 08:00:00,32.0,30.7,29.68,ENE,74,0.0,0.0,95,0.00,,,0.00,33,Wunderground v.1.15,2013-12-15 13:00:00,
2013-12-15 08:10:00,32.2,30.9,29.69,ENE,74,0.0,0.0,95,0.00,,,0.00,26,Wunderground v.1.15,2013-12-15 13:10:00,
2013-12-15 08:20:00,32.4,31.1,29.70,ENE,74,0.0,0.0,95,0.00,,,0.00,91,Wunderground v.1.15,2013-12-15 13:20:00,
2013-12-15 08:30:00,33.0,31.7,29.70,SW,223,0.0,0.0,95,0.00,,,0.00,58,Wunderground v.1.15,2013-12-15 13:30:00,
2013-12-15 08:40:00,33.8,33.8,29.71,SW,223,0.0,0.0,100,0.00,,,0.00,81,Wunderground v.1.15,2013-12-15 13:40:00,
2013-12-15 08:50:00,34.8,33.8,29.72,WSW,246,0.0,0.0,96,0.00,,,0.00,111,Wunderground v.1.15,2013-12-15 13:50:00,
2013-12-15 09:00:00,35.8,34.8,29.73,WSW,253,1.0,2.0,96,0.00,,,0.00,163,Wunderground v.1.15,2013-12-15 14:00:00,
2013-12-15 09:10:00,36.6,35.6,29.73,West,272,2.0,2.0,96,0.00,,,0.00,225,Wunderground v.1.15,2013-12-15 14:10:00,
2013-12-15 09:20:00,37.2,36.2,29.75,West,273,1.0,3.0,96,0.00,,,0.00,149,Wunderground v.1.15,2013-12-15 14:20:00,
2013-12-15 09:30:00,37.8,36.8,29.75,West,261,2.0,2.0,96,0.11,,,0.02,287,Wunderground v.1.15,2013-12-15 14:30:00,
2013-12-15 09:40:00,40.4,39.1,29.75,WNW,282,4.0,4.0,95,0.06,,,0.03,485,Wunderground v.1.15,2013-12-15 14:40:00,
2013-12-15 09:50:00,41.8,38.5,29.76,West,271,5.0,5.0,88,0.10,,,0.04,248,Wunderground v.1.15,2013-12-15 14:50:00,
2013-12-15 10:00:00,41.6,36.5,29.77,WNW,284,6.0,6.0,82,0.11,,,0.07,139,Wunderground v.1.15,2013-12-15 15:00:00,
2013-12-15 10:10:00,41.0,35.0,29.77,WNW,284,6.0,6.0,79,0.09,,,0.09,130,Wunderground v.1.15,2013-12-15 15:10:00,
2013-12-15 10:20:00,40.9,34.6,29.77,West,278,5.0,7.0,78,0.08,,,0.11,338,Wunderground v.1.15,2013-12-15 15:20:00,
2013-12-15 10:30:00,41.5,34.8,29.77,NW,304,5.0,5.0,77,0.26,,,0.14,199,Wunderground v.1.15,2013-12-15 15:30:00,
2013-12-15 10:40:00,41.8,34.1,29.77,WNW,294,6.0,6.0,74,0.22,,,0.16,290,Wunderground v.1.15,2013-12-15 15:40:00,
2013-12-15 10:50:00,42.2,33.8,29.77,West,263,4.0,8.0,72,0.23,,,0.18,281,Wunderground v.1.15,2013-12-15 15:50:00,
2013-12-15 11:00:00,41.9,33.5,29.77,West,261,4.0,4.0,72,0.07,,,0.19,232,Wunderground v.1.15,2013-12-15 16:00:00,
2013-12-15 11:10:00,42.1,34.1,29.78,WNW,291,4.0,4.0,73,0.08,,,0.21,290,Wunderground v.1.15,2013-12-15 16:10:00,
2013-12-15 11:20:00,42.2,33.5,29.77,WNW,284,5.0,6.0,71,0.08,,,0.22,243,Wunderground v.1.15,2013-12-15 16:20:00,
2013-12-15 11:30:00,42.1,33.4,29.76,West,274,5.0,10.0,71,0.15,,,0.24,441,Wunderground v.1.15,2013-12-15 16:30:00,
2013-12-15 11:40:00,42.0,32.6,29.77,West,275,7.0,11.0,69,0.14,,,0.26,232,Wunderground v.1.15,2013-12-15 16:40:00,
2013-12-15 11:50:00,41.7,31.9,29.77,WNW,283,7.0,7.0,68,0.13,,,0.28,204,Wunderground v.1.15,2013-12-15 16:50:00,
2013-12-15 12:00:00,41.2,31.1,29.77,West,270,6.0,10.0,67,0.05,,,0.28,174,Wunderground v.1.15,2013-12-15 17:00:00,
2013-12-15 12:10:00,40.9,31.1,29.78,NW,324,6.0,6.0,68,0.08,,,0.29,174,Wunderground v.1.15,2013-12-15 17:10:00,
2013-12-15 12:20:00,40.6,30.9,29.77,WNW,290,5.0,5.0,68,0.06,,,0.30,134,Wunderground v.1.15,2013-12-15 17:20:00,
2013-12-15 12:30:00,40.4,31.0,29.77,NW,305,4.0,5.0,69,0.00,,,0.30,155,Wunderground v.1.15,2013-12-15 17:30:00,
2013-12-15 12:40:00,40.0,30.6,29.78,WNW,290,5.0,5.0,69,0.00,,,0.31,149,Wunderground v.1.15,2013-12-15 17:40:00,
2013-12-15 12:50:00,39.6,30.6,29.78,NW,305,5.0,14.0,70,0.00,,,0.31,113,Wunderground v.1.15,2013-12-15 17:50:00,
2013-12-15 13:00:00,39.1,30.1,29.78,WNW,282,6.0,6.0,70,0.00,,,0.31,127,Wunderground v.1.15,2013-12-15 18:00:00,
2013-12-15 13:10:00,38.8,30.5,29.79,WNW,286,6.0,6.0,72,0.00,,,0.31,169,Wunderground v.1.15,2013-12-15 18:10:00,
2013-12-15 13:20:00,38.7,30.1,29.79,WNW,283,5.0,6.0,71,0.00,,,0.32,153,Wunderground v.1.15,2013-12-15 18:20:00,
2013-12-15 13:30:00,38.7,29.8,29.80,WNW,298,6.0,6.0,70,0.00,,,0.32,144,Wunderground v.1.15,2013-12-15 18:30:00,
2013-12-15 13:40:00,38.7,29.4,29.80,NW,317,4.0,4.0,69,0.00,,,0.32,114,Wunderground v.1.15,2013-12-15 18:40:00,
2013-12-15 13:50:00,38.6,28.9,29.80,West,277,5.0,5.0,68,0.00,,,0.32,91,Wunderground v.1.15,2013-12-15 18:50:00,
2013-12-15 14:00:00,38.3,29.4,29.81,WNW,297,6.0,6.0,70,0.00,,,0.32,105,Wunderground v.1.15,2013-12-15 19:00:00,
2013-12-15 14:10:00,37.7,29.1,29.81,WNW,284,7.0,7.0,71,0.00,,,0.32,118,Wunderground v.1.15,2013-12-15 19:10:00,
2013-12-15 14:20:00,37.7,28.8,29.82,WNW,292,3.0,5.0,70,0.00,,,0.32,149,Wunderground v.1.15,2013-12-15 19:20:00,
2013-12-15 14:30:00,37.8,28.2,29.82,West,273,5.0,5.0,68,0.00,,,0.32,178,Wunderground v.1.15,2013-12-15 19:30:00,
2013-12-15 14:40:00,38.2,27.8,29.82,WNW,289,6.0,9.0,66,0.00,,,0.32,229,Wunderground v.1.15,2013-12-15 19:40:00,
2013-12-15 14:50:00,38.1,27.0,29.83,SSW,202,7.0,7.0,64,0.00,,,0.32,137,Wunderground v.1.15,2013-12-15 19:50:00,
2013-12-15 15:00:00,37.9,27.2,29.83,WNW,293,4.0,4.0,65,0.00,,,0.32,104,Wunderground v.1.15,2013-12-15 20:00:00,
2013-12-15 15:10:00,37.6,26.5,29.83,WNW,285,5.0,9.0,64,0.00,,,0.32,113,Wunderground v.1.15,2013-12-15 20:10:00,
2013-12-15 15:20:00,37.3,26.2,29.85,NNW,340,6.0,6.0,64,0.00,,,0.32,100,Wunderground v.1.15,2013-12-15 20:20:00,
2013-12-15 15:30:00,37.1,26.0,29.85,West,281,3.0,4.0,64,0.00,,,0.32,93,Wunderground v.1.15,2013-12-15 20:30:00,
2013-12-15 15:40:00,36.9,25.9,29.86,WNW,283,3.0,3.0,64,0.00,,,0.32,72,Wunderground v.1.15,2013-12-15 20:40:00,
2013-12-15 15:50:00,36.7,26.0,29.86,West,276,4.0,5.0,65,0.00,,,0.32,93,Wunderground v.1.15,2013-12-15 20:50:00,
2013-12-15 16:00:00,36.6,25.9,29.87,WNW,302,4.0,4.0,65,0.00,,,0.32,84,Wunderground v.1.15,2013-12-15 21:00:00,
2013-12-15 16:10:00,36.4,25.7,29.87,NW,311,2.0,2.0,65,0.00,,,0.32,47,Wunderground v.1.15,2013-12-15 21:10:00,
2013-12-15 16:20:00,35.9,24.9,29.88,NNW,336,3.0,3.0,64,0.00,,,0.32,28,Wunderground v.1.15,2013-12-15 21:20:00,
2013-12-15 16:30:00,35.5,24.1,29.88,WNW,297,2.0,4.0,63,0.00,,,0.32,21,Wunderground v.1.15,2013-12-15 21:30:00,
2013-12-15 16:40:00,35.1,23.8,29.89,NW,309,1.0,2.0,63,0.00,,,0.32,14,Wunderground v.1.15,2013-12-15 21:40:00,
2013-12-15 16:50:00,34.7,23.4,29.89,WNW,288,2.0,2.0,63,0.00,,,0.32,0,Wunderground v.1.15,2013-12-15 21:50:00,
2013-12-15 17:00:00,34.4,23.1,29.89,WNW,285,1.0,1.0,63,0.00,,,0.32,0,Wunderground v.1.15,2013-12-15 22:00:00,
2013-12-15 17:10:00,34.2,23.7,29.89,West,274,2.0,2.0,65,0.00,,,0.32,0,Wunderground v.1.15,2013-12-15 22:10:00,
2013-12-15 17:20:00,33.9,23.4,29.89,WSW,255,2.0,7.0,65,0.00,,,0.32,0,Wunderground v.1.15,2013-12-15 22:20:00,
2013-12-15 17:30:00,33.8,23.3,29.89,West,272,1.0,1.0,65,0.00,,,0.32,0,Wunderground v.1.15,2013-12-15 22:30:00,
2013-12-15 17:40:00,33.7,23.5,29.89,West,260,1.0,1.0,66,0.00,,,0.32,0,Wunderground v.1.15,2013-12-15 22:40:00,
2013-12-15 17:50:00,33.5,23.4,29.89,WSW,252,0.0,0.0,66,0.00,,,0.32,0,Wunderground v.1.15,2013-12-15 22:50:00,
2013-12-15 18:00:00,33.5,23.4,29.89,South,182,0.0,2.0,66,0.00,,,0.32,0,Wunderground v.1.15,2013-12-15 23:00:00,
2013-12-15 18:10:00,33.3,23.5,29.89,WSW,241,0.0,0.0,67,0.00,,,0.32,0,Wunderground v.1.15,2013-12-15 23:10:00,
2013-12-15 18:20:00,33.3,23.9,29.89,West,271,0.0,0.0,68,0.00,,,0.32,0,Wunderground v.1.15,2013-12-15 23:20:00,
2013-12-15 18:30:00,33.1,23.7,29.90,WSW,257,0.0,0.0,68,0.00,,,0.32,0,Wunderground v.1.15,2013-12-15 23:30:00,
2013-12-15 18:40:00,33.0,23.9,29.90,SSW,213,0.0,0.0,69,0.00,,,0.32,0,Wunderground v.1.15,2013-12-15 23:40:00,
2013-12-15 18:50:00,32.9,23.8,29.90,SW,217,0.0,0.0,69,0.00,,,0.32,0,Wunderground v.1.15,2013-12-15 23:50:00,
2013-12-15 19:00:00,32.8,23.7,29.90,West,275,0.0,0.0,69,0.00,,,0.32,0,Wunderground v.1.15,2013-12-16 00:00:00,
2013-12-15 19:10:00,32.6,23.9,29.90,WSW,254,1.0,1.0,70,0.00,,,0.32,0,Wunderground v.1.15,2013-12-16 00:10:00,
2013-12-15 19:20:00,32.7,24.0,29.90,WNW,284,3.0,3.0,70,0.00,,,0.32,0,Wunderground v.1.15,2013-12-16 00:20:00,
2013-12-15 19:30:00,32.9,24.2,29.90,WSW,257,5.0,7.0,70,0.00,,,0.32,0,Wunderground v.1.15,2013-12-16 00:30:00,
2013-12-15 19:40:00,33.0,24.3,29.90,West,275,6.0,6.0,70,0.00,,,0.32,0,Wunderground v.1.15,2013-12-16 00:40:00,
2013-12-15 19:50:00,33.2,24.5,29.90,West,262,6.0,7.0,70,0.00,,,0.32,0,Wunderground v.1.15,2013-12-16 00:50:00,
2013-12-15 20:00:00,33.1,24.4,29.91,WSW,248,6.0,6.0,70,0.00,,,0.32,0,Wunderground v.1.15,2013-12-16 01:00:00,
2013-12-15 20:10:00,32.9,24.2,29.90,WSW,256,5.0,6.0,70,0.00,,,0.32,0,Wunderground v.1.15,2013-12-16 01:10:00,
2013-12-15 20:20:00,32.8,24.4,29.91,West,263,4.0,4.0,71,0.00,,,0.32,0,Wunderground v.1.15,2013-12-16 01:20:00,
2013-12-15 20:30:00,32.7,24.3,29.90,WSW,252,3.0,5.0,71,0.00,,,0.32,0,Wunderground v.1.15,2013-12-16 01:30:00,
2013-12-15 20:40:00,32.6,24.2,29.90,West,273,3.0,3.0,71,0.00,,,0.32,0,Wunderground v.1.15,2013-12-16 01:40:00,
2013-12-15 20:50:00,32.4,24.4,29.91,WNW,285,3.0,5.0,72,0.00,,,0.32,0,Wunderground v.1.15,2013-12-16 01:50:00,
2013-12-15 21:00:00,32.5,24.5,29.90,West,277,4.0,4.0,72,0.00,,,0.32,0,Wunderground v.1.15,2013-12-16 02:00:00,
2013-12-15 21:10:00,32.8,24.8,29.90,West,274,4.0,4.0,72,0.00,,,0.32,0,Wunderground v.1.15,2013-12-16 02:10:00,
2013-12-15 21:20:00,33.1,25.4,29.90,West,278,4.0,6.0,73,0.00,,,0.32,0,Wunderground v.1.15,2013-12-16 02:20:00,
2013-12-15 21:30:00,33.4,25.3,29.90,West,261,3.0,3.0,72,0.00,,,0.32,0,Wunderground v.1.15,2013-12-16 02:30:00,
2013-12-15 21:40:00,33.8,25.7,29.91,West,273,3.0,3.0,72,0.00,,,0.32,0,Wunderground v.1.15,2013-12-16 02:40:00,
2013-12-15 21:50:00,34.3,26.2,29.91,WSW,244,3.0,3.0,72,0.00,,,0.32,0,Wunderground v.1.15,2013-12-16 02:50:00,
2013-12-15 22:00:00,34.4,26.0,29.92,WSW,240,2.0,2.0,71,0.00,,,0.32,0,Wunderground v.1.15,2013-12-16 03:00:00,
2013-12-15 22:10:00,34.4,26.0,29.92,West,261,2.0,2.0,71,0.00,,,0.32,0,Wunderground v.1.15,2013-12-16 03:10:00,
2013-12-15 22:20:00,34.6,26.2,29.92,West,274,2.0,2.0,71,0.00,,,0.32,0,Wunderground v.1.15,2013-12-16 03:20:00,
2013-12-15 22:30:00,34.8,26.7,29.92,West,265,2.0,2.0,72,0.00,,,0.32,0,Wunderground v.1.15,2013-12-16 03:30:00,
2013-12-15 22:40:00,34.8,26.7,29.92,West,277,2.0,2.0,72,0.00,,,0.32,0,Wunderground v.1.15,2013-12-16 03:40:00,
2013-12-15 22:50:00,34.9,27.1,29.93,West,263,3.0,5.0,73,0.00,,,0.32,0,Wunderground v.1.15,2013-12-16 03:50:00,
2013-12-15 23:00:00,35.3,27.2,29.92,West,276,5.0,6.0,72,0.00,,,0.32,0,Wunderground v.1.15,2013-12-16 04:00:00,
2013-12-15 23:10:00,35.7,27.6,29.93,West,276,6.0,6.0,72,0.00,,,0.32,0,Wunderground v.1.15,2013-12-16 04:10:00,
2013-12-15 23:20:00,35.7,27.2,29.92,West,278,4.0,4.0,71,0.00,,,0.32,0,Wunderground v.1.15,2013-12-16 04:20:00,
2013-12-15 23:30:00,35.7,27.6,29.92,West,275,5.0,5.0,72,0.00,,,0.32,0,Wunderground v.1.15,2013-12-16 04:30:00,
2013-12-15 23:40:00,35.7,27.6,29.93,WNW,282,4.0,4.0,72,0.00,,,0.32,0,Wunderground v.1.15,2013-12-16 04:40:00,
2013-12-15 23:50:00,35.5,27.4,29.93,WNW,283,3.0,3.0,72,0.00,,,0.32,0,Wunderground v.1.15,2013-12-16 04:50:00,